Terminal Aerodrome Forecast
Issued by NWS Sterling, VA

Current Version | Previous Version | Text Only | Print | Product List | Glossary Off
Versions: 1 2 3 4 5 6 7 8 9 10 11 12 13 14 15 16 17 18 19 20

000
FTUS41 KLWX 291024 AAA
TAFMRB
TAF AMD
KMRB 291024Z 2910/3006 00000KT 3/4SM BR BKN002
     FM291200 VRB03KT 3SM BR BKN025
     FM291300 16003KT P6SM SCT100
     FM291500 16006KT P6SM BKN050
     FM292000 17009KT P6SM SCT050=

USA.gov is the U.S. government's official web portal to all federal, state and local government web resources and services.